createdAt,value
2022-10-30T06:15:41.374Z,100.00
2022-10-30T06:25:41.680Z,100.00
2022-10-30T06:35:41.392Z,100.00
2022-10-30T06:45:41.278Z,100.00
2022-10-30T06:55:41.253Z,100.00
2022-10-30T07:05:41.375Z,100.00
2022-10-30T07:25:41.532Z,100.00
2022-10-30T07:35:41.378Z,100.00
2022-10-30T07:45:41.312Z,100.00
2022-10-30T07:55:41.355Z,100.00
2022-10-30T08:05:41.348Z,100.00
2022-10-30T08:15:41.435Z,100.00
2022-10-30T08:25:41.378Z,100.00
2022-10-30T08:35:41.405Z,97.64
2022-10-30T08:45:41.591Z,95.29
2022-10-30T08:55:41.782Z,95.33
2022-10-30T09:05:41.815Z,92.89
2022-10-30T09:15:41.760Z,89.89
2022-10-30T09:25:41.750Z,91.89
2022-10-30T09:35:41.865Z,85.73
2022-10-30T09:45:41.830Z,82.32
2022-10-30T09:55:41.854Z,78.67
2022-10-30T10:05:41.812Z,75.79
2022-10-30T10:15:41.758Z,72.50
2022-10-30T10:25:41.894Z,71.63
2022-10-30T10:35:41.785Z,70.63
2022-10-30T10:45:41.789Z,68.80
2022-10-30T10:55:42.611Z,67.13
2022-10-30T11:05:41.968Z,65.32
2022-10-30T11:15:41.905Z,65.50
2022-10-30T11:25:41.977Z,64.71
2022-10-30T11:35:42.166Z,64.01
2022-10-30T11:45:42.045Z,64.49
2022-10-30T11:55:41.983Z,63.29
2022-10-30T12:05:44.879Z,62.34
2022-10-30T12:15:42.104Z,64.22
2022-10-30T12:25:41.927Z,63.66
2022-10-30T12:35:41.980Z,63.97
2022-10-30T12:45:42.133Z,63.13
2022-10-30T12:55:42.143Z,60.71
2022-10-30T13:05:41.978Z,61.96
2022-10-30T13:15:42.143Z,61.97
2022-10-30T13:25:42.055Z,60.68
2022-10-30T13:35:41.876Z,60.90
2022-10-30T13:45:42.043Z,61.30
2022-10-30T13:55:42.095Z,61.99
2022-10-30T14:05:42.212Z,66.46
2022-10-30T14:15:42.171Z,69.09
2022-10-30T14:25:42.065Z,72.92
2022-10-30T14:35:42.165Z,79.15
2022-10-30T14:45:42.240Z,82.40
2022-10-30T14:55:42.182Z,85.78
2022-10-30T15:05:42.119Z,97.16
2022-10-30T15:15:42.225Z,99.61
2022-10-30T15:25:42.213Z,100.00
2022-10-30T15:35:42.329Z,100.00
2022-10-30T15:45:42.139Z,100.00
2022-10-30T15:55:42.207Z,100.00
2022-10-30T16:05:43.209Z,100.00
2022-10-30T16:15:42.089Z,100.00
2022-10-30T16:25:47.002Z,100.00
2022-10-30T16:35:42.299Z,100.00
2022-10-30T16:45:42.227Z,100.00
2022-10-30T16:55:42.200Z,100.00
2022-10-30T17:05:42.334Z,100.00
2022-10-30T17:15:42.204Z,100.00
2022-10-30T17:25:42.276Z,100.00
2022-10-30T17:35:42.281Z,100.00
2022-10-30T17:45:42.249Z,100.00
2022-10-30T17:55:42.316Z,100.00
2022-10-30T18:05:42.385Z,100.00
2022-10-30T18:15:42.295Z,100.00
2022-10-30T18:25:42.222Z,100.00
2022-10-30T18:35:42.374Z,100.00
2022-10-30T18:45:42.288Z,100.00
2022-10-30T18:55:42.396Z,100.00
2022-10-30T19:05:42.787Z,100.00
2022-10-30T19:15:42.756Z,100.00
